createdAt,value
2019-01-18T00:02:10.261Z,2.60
2019-01-18T00:06:14.937Z,3.00
2019-01-18T00:10:19.613Z,2.73
2019-01-18T00:14:24.286Z,3.37
2019-01-18T00:18:29.339Z,3.10
2019-01-18T00:22:34.004Z,3.10
2019-01-18T00:26:38.675Z,3.60
2019-01-18T00:30:43.353Z,2.70
2019-01-18T00:34:48.030Z,3.33
2019-01-18T00:38:52.711Z,2.90
2019-01-18T00:42:57.370Z,2.83
2019-01-18T00:47:02.043Z,3.50
2019-01-18T00:51:06.724Z,2.80
2019-01-18T00:55:12.133Z,3.00
2019-01-18T00:59:16.799Z,3.13
2019-01-18T01:03:21.477Z,3.30
2019-01-18T01:07:26.149Z,3.60
2019-01-18T01:11:30.838Z,3.97
2019-01-18T01:15:35.510Z,4.17
2019-01-18T01:19:40.182Z,4.33
2019-01-18T01:23:44.869Z,3.70
2019-01-18T01:27:49.709Z,4.47
2019-01-18T01:31:54.379Z,3.77
2019-01-18T01:36:00.029Z,3.67
2019-01-18T01:40:08.200Z,4.30
2019-01-18T01:44:12.881Z,4.07
2019-01-18T01:48:17.556Z,2.97
2019-01-18T01:52:22.229Z,2.97
2019-01-18T01:56:26.900Z,2.60
2019-01-18T02:00:31.570Z,3.17
2019-01-18T02:04:36.314Z,3.07
2019-01-18T02:08:40.996Z,3.20
2019-01-18T02:12:45.674Z,4.03
2019-01-18T02:16:51.417Z,3.17
2019-01-18T02:20:56.089Z,3.20
2019-01-18T02:25:00.769Z,2.77
2019-01-18T02:29:05.449Z,2.03
2019-01-18T02:33:10.121Z,2.97
2019-01-18T02:37:14.798Z,3.13
2019-01-18T02:41:19.463Z,2.80
2019-01-18T02:45:24.140Z,2.80
2019-01-18T02:49:28.815Z,2.07
2019-01-18T02:53:33.486Z,2.43
2019-01-18T02:57:38.172Z,2.57
2019-01-18T03:01:42.836Z,2.10
2019-01-18T03:05:47.514Z,2.53
2019-01-18T03:09:52.191Z,2.27
2019-01-18T03:13:56.865Z,2.67
2019-01-18T03:18:01.543Z,3.00
2019-01-18T03:22:06.210Z,3.10
2019-01-18T03:26:10.892Z,3.27
2019-01-18T03:30:20.079Z,2.87
2019-01-18T03:34:23.776Z,2.57
2019-01-18T03:38:28.451Z,2.77
2019-01-18T03:42:33.128Z,2.60
2019-01-18T03:46:37.792Z,3.00
2019-01-18T03:50:42.475Z,3.57
2019-01-18T03:54:47.150Z,3.03
2019-01-18T03:58:51.833Z,3.60
2019-01-18T04:02:56.503Z,3.60
2019-01-18T04:07:01.182Z,3.17
2019-01-18T04:11:05.865Z,3.10
2019-01-18T04:15:12.779Z,3.87
2019-01-18T04:19:17.463Z,3.63
2019-01-18T04:23:22.215Z,3.80
2019-01-18T04:27:26.891Z,3.87
2019-01-18T04:31:31.577Z,3.97
2019-01-18T04:35:36.255Z,4.13
2019-01-18T04:39:40.923Z,3.77
2019-01-18T04:43:45.595Z,3.43
2019-01-18T04:47:50.273Z,3.63
2019-01-18T04:51:54.949Z,4.20
2019-01-18T04:55:59.627Z,3.47
2019-01-18T05:00:07.556Z,3.50
2019-01-18T05:04:12.509Z,4.10
2019-01-18T05:08:17.185Z,4.20
2019-01-18T05:12:21.869Z,3.40
2019-01-18T05:16:26.553Z,3.97
2019-01-18T05:20:31.219Z,3.83
2019-01-18T05:24:35.905Z,4.00
2019-01-18T05:28:40.574Z,3.53
2019-01-18T05:32:45.251Z,4.10
2019-01-18T05:36:49.915Z,3.93
2019-01-18T05:40:54.601Z,5.17
2019-01-18T05:44:59.274Z,4.93
2019-01-18T05:49:03.954Z,4.33
2019-01-18T05:53:09.404Z,4.70
2019-01-18T05:57:14.084Z,4.73
2019-01-18T06:01:18.756Z,4.90
2019-01-18T06:05:23.505Z,5.20
2019-01-18T06:09:28.193Z,5.10
2019-01-18T06:13:32.882Z,5.47
2019-01-18T06:17:37.553Z,5.50
2019-01-18T06:21:42.235Z,5.87
2019-01-18T06:25:46.918Z,6.50
2019-01-18T06:29:51.600Z,6.37
2019-01-18T06:33:56.336Z,6.00
2019-01-18T06:38:00.972Z,6.47
2019-01-18T06:42:05.656Z,6.53
2019-01-18T06:46:10.616Z,6.97
2019-01-18T06:50:17.239Z,7.07
2019-01-18T06:54:21.914Z,7.43
2019-01-18T06:58:26.609Z,6.60
2019-01-18T07:02:31.296Z,6.30
2019-01-18T07:06:35.981Z,5.50
2019-01-18T07:10:40.655Z,6.23
2019-01-18T07:14:45.342Z,6.77
2019-01-18T07:18:50.046Z,6.33
2019-01-18T07:22:54.734Z,6.73
2019-01-18T07:26:59.442Z,6.83
2019-01-18T07:31:04.141Z,11.97
2019-01-18T07:35:09.113Z,8.90
2019-01-18T07:39:13.806Z,6.63
2019-01-18T07:43:18.501Z,6.93
2019-01-18T07:47:23.192Z,7.10
2019-01-18T07:51:27.877Z,6.40
2019-01-18T07:55:32.827Z,7.27
2019-01-18T07:59:37.503Z,8.97
2019-01-18T08:03:42.198Z,10.97
2019-01-18T08:07:46.897Z,11.30
2019-01-18T08:11:52.568Z,14.60
2019-01-18T08:15:57.251Z,10.40
2019-01-18T08:20:01.946Z,10.43
2019-01-18T08:24:06.633Z,8.93
2019-01-18T08:28:11.325Z,7.10
2019-01-18T08:32:15.989Z,6.87
2019-01-18T08:36:20.679Z,6.97
2019-01-18T08:40:30.949Z,7.23
2019-01-18T08:44:35.633Z,6.57
2019-01-18T08:48:40.320Z,7.03
2019-01-18T08:52:45.000Z,6.43
2019-01-18T08:56:49.689Z,6.27
2019-01-18T09:00:54.383Z,7.07
2019-01-18T09:04:59.064Z,6.33
2019-01-18T09:09:05.618Z,5.50
2019-01-18T09:13:10.297Z,6.20
2019-01-18T09:17:14.979Z,6.10
2019-01-18T09:21:19.655Z,5.17
2019-01-18T09:25:24.344Z,5.47
2019-01-18T09:29:29.030Z,7.20
2019-01-18T09:33:33.697Z,5.10
2019-01-18T09:37:38.392Z,38.67
2019-01-18T09:41:44.170Z,7.20
2019-01-18T09:45:48.955Z,7.30
2019-01-18T09:49:53.644Z,6.43
2019-01-18T09:53:58.317Z,5.53
2019-01-18T09:58:03.002Z,5.07
2019-01-18T10:02:07.676Z,6.73
2019-01-18T10:06:12.366Z,6.40
2019-01-18T10:10:21.708Z,5.03
2019-01-18T10:14:26.367Z,5.43
2019-01-18T10:18:31.037Z,3.67
2019-01-18T10:22:35.715Z,3.47
2019-01-18T10:26:40.391Z,3.23
2019-01-18T10:30:45.084Z,3.47
2019-01-18T10:34:49.757Z,4.03
2019-01-18T10:38:54.445Z,3.90
2019-01-18T10:42:59.128Z,3.93
2019-01-18T10:47:03.812Z,3.83
2019-01-18T10:51:08.490Z,4.63
2019-01-18T10:55:13.169Z,9.00
2019-01-18T10:59:17.855Z,6.30
2019-01-18T11:03:22.525Z,4.23
2019-01-18T11:07:27.197Z,3.43
2019-01-18T11:11:31.888Z,4.27
2019-01-18T11:15:36.566Z,3.43
2019-01-18T11:19:41.246Z,2.90
2019-01-18T11:23:46.895Z,2.83
2019-01-18T11:27:51.579Z,3.30
2019-01-18T11:31:56.263Z,3.10
2019-01-18T11:36:00.926Z,2.67
2019-01-18T11:40:08.865Z,2.70
2019-01-18T11:44:13.552Z,2.23
2019-01-18T11:48:18.238Z,2.50
2019-01-18T11:52:22.909Z,3.20
2019-01-18T11:56:27.592Z,2.70
2019-01-18T12:00:37.737Z,2.43
2019-01-18T12:04:38.645Z,2.30
2019-01-18T12:08:43.323Z,3.67
2019-01-18T12:12:47.992Z,3.17
2019-01-18T12:16:52.674Z,2.63
2019-01-18T12:20:58.723Z,2.50
2019-01-18T12:25:03.479Z,2.53
2019-01-18T12:29:08.158Z,2.67
2019-01-18T12:33:12.838Z,2.80
2019-01-18T12:37:17.512Z,2.90
2019-01-18T12:41:22.196Z,2.70
2019-01-18T12:45:26.883Z,2.53
2019-01-18T12:49:31.565Z,2.97
2019-01-18T12:53:36.250Z,2.60
2019-01-18T12:57:40.917Z,3.27
2019-01-18T13:01:45.594Z,3.30
2019-01-18T13:05:50.266Z,2.90
2019-01-18T13:09:54.952Z,2.43
2019-01-18T13:13:59.644Z,2.40
2019-01-18T13:18:04.400Z,2.30
2019-01-18T13:22:09.074Z,2.10
2019-01-18T13:26:13.751Z,3.03
2019-01-18T13:30:19.172Z,2.50
2019-01-18T13:34:23.854Z,2.33
2019-01-18T13:38:28.522Z,2.47
2019-01-18T13:42:33.206Z,3.03
2019-01-18T13:46:38.853Z,3.00
2019-01-18T13:50:43.525Z,3.73
2019-01-18T13:54:48.191Z,5.07
2019-01-18T13:58:52.879Z,4.67
2019-01-18T14:02:57.566Z,5.43
2019-01-18T14:07:02.247Z,3.60
2019-01-18T14:11:08.093Z,3.27
2019-01-18T14:15:17.993Z,3.83
2019-01-18T14:19:22.676Z,5.67
2019-01-18T14:23:27.368Z,7.93
2019-01-18T14:27:32.042Z,5.93
2019-01-18T14:31:36.733Z,7.40
2019-01-18T14:35:42.370Z,9.53
2019-01-18T14:39:47.048Z,8.90
2019-01-18T14:43:51.739Z,5.93
2019-01-18T14:47:56.417Z,4.40
2019-01-18T14:52:01.093Z,3.90
2019-01-18T14:56:05.773Z,3.53
2019-01-18T15:00:19.538Z,4.00
2019-01-18T15:04:25.194Z,3.13
2019-01-18T15:08:29.872Z,2.97
2019-01-18T15:12:35.372Z,2.23
2019-01-18T15:16:40.041Z,2.97
2019-01-18T15:20:44.716Z,2.97
2019-01-18T15:24:49.391Z,3.40
2019-01-18T15:28:54.071Z,4.27
2019-01-18T15:32:58.750Z,3.60
2019-01-18T15:37:03.417Z,4.23
2019-01-18T15:41:08.089Z,2.20
2019-01-18T15:45:12.762Z,3.83
2019-01-18T15:49:17.448Z,6.23
2019-01-18T15:53:22.130Z,7.37
2019-01-18T15:57:26.810Z,8.10
2019-01-18T16:01:31.498Z,6.53
2019-01-18T16:05:36.195Z,3.17
2019-01-18T16:09:40.863Z,2.70
2019-01-18T16:13:45.542Z,3.93
2019-01-18T16:17:50.386Z,4.23
2019-01-18T16:21:55.066Z,4.77
2019-01-18T16:25:59.742Z,4.63
2019-01-18T16:30:07.681Z,4.57
2019-01-18T16:34:12.363Z,5.50
2019-01-18T16:38:18.022Z,4.60
2019-01-18T16:42:22.705Z,5.00
2019-01-18T16:46:27.390Z,5.73
2019-01-18T16:50:32.075Z,6.30
2019-01-18T16:54:36.756Z,4.53
2019-01-18T16:58:41.473Z,4.87
2019-01-18T17:02:46.122Z,5.57
2019-01-18T17:06:50.794Z,5.13
2019-01-18T17:10:55.471Z,4.63
2019-01-18T17:15:00.176Z,7.77
2019-01-18T17:19:04.865Z,11.00
2019-01-18T17:23:09.545Z,9.90
2019-01-18T17:27:14.230Z,8.17
2019-01-18T17:31:18.923Z,9.03
2019-01-18T17:35:51.012Z,6.93
2019-01-18T17:39:55.774Z,6.87
2019-01-18T17:44:30.814Z,5.87
2019-01-18T17:48:47.592Z,5.83
2019-01-18T17:52:55.533Z,7.57
2019-01-18T17:57:06.661Z,6.60
2019-01-18T18:01:14.608Z,6.33
2019-01-18T18:05:26.439Z,4.80
2019-01-18T18:09:37.291Z,5.83
2019-01-18T18:13:51.573Z,4.70
2019-01-18T18:18:17.724Z,5.53
2019-01-18T18:22:54.583Z,5.33
2019-01-18T18:27:35.711Z,6.03
2019-01-18T18:32:00.277Z,6.37
2019-01-18T18:36:26.392Z,6.13
2019-01-18T18:40:37.448Z,5.33
2019-01-18T18:45:07.915Z,6.00
2019-01-18T18:49:18.631Z,5.43
2019-01-18T18:53:29.387Z,5.23
2019-01-18T18:57:51.790Z,5.33
2019-01-18T19:02:02.852Z,5.00
2019-01-18T19:06:13.566Z,5.33
2019-01-18T19:10:42.670Z,10.40
2019-01-18T19:14:53.279Z,14.67
2019-01-18T19:19:10.416Z,12.60
2019-01-18T19:23:18.359Z,8.17
2019-01-18T19:27:35.104Z,8.53
2019-01-18T19:31:49.002Z,8.27
2019-01-18T19:36:11.613Z,8.10
2019-01-18T19:40:22.264Z,8.60
2019-01-18T19:44:44.815Z,8.57
2019-01-18T19:48:58.383Z,10.37
2019-01-18T19:53:12.011Z,8.73
2019-01-18T19:57:22.639Z,8.67
2019-01-18T20:01:42.844Z,8.50
2019-01-18T20:05:53.759Z,9.03
2019-01-18T20:10:08.355Z,20.33
2019-01-18T20:14:25.076Z,20.17
2019-01-18T20:18:33.025Z,26.87
2019-01-18T20:22:46.564Z,14.63
2019-01-18T20:27:03.199Z,10.67
2019-01-18T20:31:11.164Z,10.37
2019-01-18T20:35:36.927Z,11.13
2019-01-18T20:39:47.425Z,10.70
2019-01-18T20:44:13.600Z,9.30
2019-01-18T20:48:37.742Z,9.40
2019-01-18T20:53:12.556Z,7.83
2019-01-18T20:57:38.431Z,9.57
2019-01-18T21:02:01.170Z,10.23
2019-01-18T21:06:17.873Z,10.60
2019-01-18T21:10:40.801Z,10.40
2019-01-18T21:15:06.876Z,19.63
2019-01-18T21:19:38.188Z,15.87
2019-01-18T21:23:48.710Z,11.67
2019-01-18T21:28:02.592Z,10.17
2019-01-18T21:32:28.558Z,14.47
2019-01-18T21:36:56.044Z,14.50
2019-01-18T21:41:12.977Z,13.53
2019-01-18T21:45:41.998Z,13.87
2019-01-18T21:49:55.016Z,13.67
2019-01-18T21:54:08.665Z,15.03
2019-01-18T21:58:31.726Z,13.03
2019-01-18T22:02:56.170Z,12.70
2019-01-18T22:07:16.109Z,10.63
2019-01-18T22:11:49.854Z,10.23
2019-01-18T22:16:15.663Z,10.20
2019-01-18T22:20:41.482Z,10.57
2019-01-18T22:24:52.376Z,9.87
2019-01-18T22:29:24.230Z,8.83
2019-01-18T22:33:50.216Z,10.50
2019-01-18T22:38:19.278Z,9.17
2019-01-18T22:42:29.842Z,9.47
2019-01-18T22:46:54.498Z,8.07
2019-01-18T22:51:02.453Z,10.93
2019-01-18T22:55:19.126Z,20.57
2019-01-18T22:59:51.307Z,18.03
2019-01-18T23:03:59.264Z,20.17
2019-01-18T23:08:16.317Z,8.37
2019-01-18T23:12:39.288Z,8.77
2019-01-18T23:17:02.104Z,9.37
2019-01-18T23:21:10.108Z,9.57
2019-01-18T23:25:20.684Z,11.50
2019-01-18T23:29:40.525Z,11.60
2019-01-18T23:33:48.485Z,11.63
2019-01-18T23:38:08.368Z,15.23
2019-01-18T23:42:12.121Z,15.40
2019-01-18T23:46:35.875Z,10.87
2019-01-18T23:50:49.669Z,10.70
2019-01-18T23:55:00.200Z,9.90
2019-01-18T23:59:11.114Z,10.07
